Time;durP1;ratioP1;P1;durP2;ratioP2;P2;SDS_P1;SDS_P2;PMS_P1;PMS_P2;Temp;Humidity;BMP_temperature;BMP_pressure;BME280_temperature;BME280_humidity;BME280_pressure;Samples;Min_cycle;Max_cycle;Signal;HPM_P1;HPM_P2
2021/11/23 00:12:33;;;;;;;31.90;13.53;;;;;;;1.55;100.00;100975.82;713842;1200;114184;-73
2021/11/23 00:27:35;;;;;;;65.00;20.97;;;;;;;1.51;100.00;100993.19;713719;1200;113457;-73
2021/11/23 00:42:38;;;;;;;28.33;12.95;;;;;;;1.36;100.00;100968.78;713625;1178;114187;-73
2021/11/23 00:57:40;;;;;;;42.25;17.18;;;;;;;1.38;100.00;100977.30;713658;1203;114805;-73
2021/11/23 01:12:43;;;;;;;21.17;9.67;;;;;;;1.50;100.00;100963.05;713839;1200;114405;-73
2021/11/23 01:27:45;;;;;;;18.53;7.88;;;;;;;1.77;100.00;100963.71;713693;1178;114874;-73
2021/11/23 01:42:49;;;;;;;17.13;6.98;;;;;;;1.91;100.00;100923.48;713723;1204;113854;-72
2021/11/23 01:57:52;;;;;;;22.33;8.90;;;;;;;2.02;100.00;100908.36;713810;1177;113816;-73
2021/11/23 02:12:55;;;;;;;42.03;15.08;;;;;;;2.14;100.00;100883.70;713939;1200;113885;-73
2021/11/23 02:27:58;;;;;;;24.83;9.63;;;;;;;2.23;100.00;100866.91;714892;1199;113867;-71
2021/11/23 02:43:01;;;;;;;15.70;6.00;;;;;;;2.27;100.00;100838.23;713882;1202;114832;-70
2021/11/23 02:58:06;;;;;;;36.98;13.40;;;;;;;2.39;100.00;100810.95;714553;1202;115172;-72
2021/11/23 03:13:08;;;;;;;124.83;28.93;;;;;;;2.55;100.00;100797.27;714409;1201;114073;-75
2021/11/23 03:28:11;;;;;;;16.53;7.20;;;;;;;2.62;100.00;100791.74;713629;1202;115687;-75
2021/11/23 03:43:13;;;;;;;32.50;11.23;;;;;;;2.55;100.00;100754.09;713602;1177;113932;-73
2021/11/23 03:58:16;;;;;;;13.30;6.18;;;;;;;2.58;100.00;100729.80;713668;1203;113922;-73
2021/11/23 04:13:19;;;;;;;43.03;13.47;;;;;;;2.52;100.00;100712.81;713708;1181;114275;-73
2021/11/23 04:28:21;;;;;;;16.30;6.15;;;;;;;2.40;100.00;100693.52;713706;1178;114111;-73
2021/11/23 04:43:24;;;;;;;16.20;6.20;;;;;;;2.48;100.00;100691.39;713601;1200;114075;-73
2021/11/23 04:58:26;;;;;;;7.00;4.03;;;;;;;2.46;100.00;100682.84;713717;1199;113587;-73
2021/11/23 05:13:28;;;;;;;29.15;14.50;;;;;;;2.57;100.00;100679.73;713932;1185;113447;-72
2021/11/23 05:28:31;;;;;;;27.15;14.20;;;;;;;2.77;100.00;100652.87;714034;1200;115571;-73
2021/11/23 05:43:33;;;;;;;24.10;11.25;;;;;;;2.95;100.00;100658.04;714620;1199;115201;-73
2021/11/23 05:58:36;;;;;;;21.60;9.23;;;;;;;3.01;100.00;100652.56;714693;1175;113980;-73
2021/11/23 06:13:39;;;;;;;17.55;8.95;;;;;;;3.12;100.00;100664.97;714803;1200;113775;-72
2021/11/23 06:28:42;;;;;;;20.98;9.18;;;;;;;3.23;100.00;100678.20;714715;1205;113815;-73
2021/11/23 06:43:44;;;;;;;14.63;8.67;;;;;;;3.41;100.00;100660.87;714133;1200;114024;-73
2021/11/23 06:58:47;;;;;;;17.50;9.53;;;;;;;3.56;100.00;100679.14;713704;1205;114466;-73
2021/11/23 07:13:49;;;;;;;22.38;10.73;;;;;;;3.69;100.00;100674.98;713729;1202;115072;-73
2021/11/23 07:28:52;;;;;;;35.38;15.85;;;;;;;3.80;100.00;100688.23;713710;1200;118136;-75
2021/11/23 07:43:55;;;;;;;35.13;13.97;;;;;;;3.94;100.00;100692.67;714122;1204;114012;-77
2021/11/23 07:58:57;;;;;;;34.18;13.93;;;;;;;4.07;100.00;100695.45;714183;1202;114912;-75
2021/11/23 08:14:00;;;;;;;35.65;21.65;;;;;;;4.11;100.00;100732.48;714319;1202;115422;-76
2021/11/23 08:29:03;;;;;;;25.13;13.08;;;;;;;4.24;100.00;100740.45;714259;1205;114588;-76
2021/11/23 08:44:05;;;;;;;51.68;22.20;;;;;;;4.31;100.00;100755.59;714046;1199;114099;-84
2021/11/23 08:59:14;;;;;;;29.70;14.93;;;;;;;4.52;100.00;100764.92;713908;1179;114098;-84
2021/11/23 09:14:17;;;;;;;27.00;14.00;;;;;;;4.76;100.00;100781.73;713958;1206;115790;-85
2021/11/23 09:29:22;;;;;;;25.80;16.60;;;;;;;4.99;100.00;100790.86;714051;1200;113839;-85
2021/11/23 09:44:26;;;;;;;22.73;12.43;;;;;;;5.20;100.00;100797.52;714151;1200;113947;-85
2021/11/23 09:59:29;;;;;;;22.70;11.90;;;;;;;5.40;100.00;100807.63;713952;1181;115130;-77
2021/11/23 10:14:34;;;;;;;17.20;11.50;;;;;;;5.63;100.00;100818.45;714662;1201;114844;-79
2021/11/23 10:29:52;;;;;;;21.53;12.23;;;;;;;5.71;100.00;100828.41;714859;1204;113787;-83
2021/11/23 10:44:56;;;;;;;22.10;11.83;;;;;;;6.06;100.00;100826.34;714579;1202;113368;-91
2021/11/23 10:59:59;;;;;;;21.53;12.27;;;;;;;6.52;100.00;100827.90;715247;1200;114883;-91
2021/11/23 11:15:05;;;;;;;17.50;11.43;;;;;;;6.82;100.00;100840.77;715764;1200;23152;-91
2021/11/23 11:30:29;;;;;;;26.98;14.58;;;;;;;7.03;100.00;100845.53;715251;1202;114031;-92
2021/11/23 11:45:49;;;;;;;18.93;11.35;;;;;;;7.36;100.00;100859.13;715596;1200;115687;-78
2021/11/23 12:00:52;;;;;;;26.10;15.88;;;;;;;7.64;100.00;100858.13;714061;1204;114343;-77
2021/11/23 12:16:04;;;;;;;136.05;42.80;;;;;;;7.73;100.00;100874.96;715410;1199;114998;-76
2021/11/23 12:31:12;;;;;;;103.10;47.15;;;;;;;7.57;100.00;100886.41;713835;1200;114555;-76
2021/11/23 12:46:24;;;;;;;281.25;136.20;;;;;;;7.57;100.00;100898.64;714095;1202;114896;-89
2021/11/23 13:01:29;;;;;;;370.10;112.03;;;;;;;11.54;100.00;100903.60;714911;1200;115991;-88
2021/11/23 13:16:31;;;;;;;402.93;101.68;;;;;;;13.72;100.00;100911.17;715079;1177;114852;-90
2021/11/23 13:31:42;;;;;;;259.95;95.65;;;;;;;10.86;100.00;100918.72;715067;1200;116763;-75
2021/11/23 13:46:52;;;;;;;87.00;37.28;;;;;;;8.29;100.00;100925.17;715778;1199;115277;-77
2021/11/23 14:02:00;;;;;;;218.58;83.60;;;;;;;7.45;100.00;100929.83;715255;1200;114291;-75
2021/11/23 14:17:05;;;;;;;148.97;71.37;;;;;;;7.02;100.00;100952.60;715468;1199;114215;-82
2021/11/23 14:32:08;;;;;;;105.20;49.37;;;;;;;6.63;100.00;100962.80;714780;1200;115260;-77
2021/11/23 14:47:12;;;;;;;92.33;43.78;;;;;;;6.22;100.00;100976.54;714949;1177;114169;-81
2021/11/23 15:02:20;;;;;;;116.48;54.78;;;;;;;5.64;100.00;100989.34;715595;1200;114204;-77
2021/11/23 15:17:23;;;;;;;85.92;36.18;;;;;;;5.50;100.00;100987.48;714981;1177;114417;-77
2021/11/23 15:32:28;;;;;;;104.75;51.20;;;;;;;5.23;100.00;100998.50;714814;1177;114199;-76
2021/11/23 15:47:32;;;;;;;99.23;43.57;;;;;;;4.87;100.00;100993.50;715595;1176;114428;-76
2021/11/23 16:02:35;;;;;;;128.35;51.18;;;;;;;4.35;100.00;101010.86;715356;1199;115966;-76
2021/11/23 16:17:39;;;;;;;56.53;27.50;;;;;;;4.23;100.00;101009.72;715303;1200;116130;-76
2021/11/23 16:32:41;;;;;;;126.55;56.80;;;;;;;4.03;100.00;101015.08;715202;1177;114725;-77
2021/11/23 16:47:45;;;;;;;340.17;87.33;;;;;;;3.78;100.00;101011.89;715935;1174;113270;-77
2021/11/23 17:02:49;;;;;;;459.23;142.00;;;;;;;3.57;100.00;101029.33;715965;1200;115447;-78
2021/11/23 17:17:52;;;;;;;315.13;101.98;;;;;;;3.29;100.00;101030.61;715833;1200;114986;-77
2021/11/23 17:32:57;;;;;;;199.98;77.35;;;;;;;3.07;100.00;101030.73;714994;1180;114326;-76
2021/11/23 17:48:00;;;;;;;120.08;47.53;;;;;;;2.93;100.00;101033.09;715009;1200;114323;-77
2021/11/23 18:03:04;;;;;;;156.93;61.18;;;;;;;2.80;100.00;101044.00;715252;1178;114688;-77
2021/11/23 18:18:10;;;;;;;194.08;68.75;;;;;;;2.85;100.00;101055.92;715445;1200;116020;-77
2021/11/23 18:33:14;;;;;;;154.07;51.30;;;;;;;2.83;100.00;101045.63;714892;1200;114380;-77
2021/11/23 18:48:33;;;;;;;156.05;56.80;;;;;;;2.77;100.00;101048.47;715080;1202;114749;-77
2021/11/23 19:03:37;;;;;;;108.70;38.73;;;;;;;2.78;100.00;101063.13;714943;1177;115229;-78
2021/11/23 19:18:41;;;;;;;141.70;50.88;;;;;;;2.61;100.00;101061.24;715036;1182;114543;-78
2021/11/23 19:33:48;;;;;;;193.93;71.17;;;;;;;2.90;100.00;101053.97;714972;1176;114420;-76
2021/11/23 19:48:56;;;;;;;164.77;61.07;;;;;;;2.95;100.00;101052.85;715068;1177;114278;-75
2021/11/23 20:03:59;;;;;;;123.50;45.70;;;;;;;2.81;100.00;101060.38;714811;1200;114546;-74
2021/11/23 20:19:01;;;;;;;124.73;46.65;;;;;;;3.35;100.00;101067.55;714972;1200;114463;-75
2021/11/23 20:34:04;;;;;;;166.83;54.20;;;;;;;3.48;100.00;101066.08;715048;1200;115715;-81
2021/11/23 20:49:06;;;;;;;114.83;45.25;;;;;;;3.60;100.00;101041.31;714383;1177;114336;-81
2021/11/23 21:04:08;;;;;;;178.90;64.18;;;;;;;3.52;100.00;101056.41;713764;1200;114501;-81
2021/11/23 21:19:12;;;;;;;175.20;58.60;;;;;;;3.74;100.00;101051.06;713996;1176;114185;-81
2021/11/23 21:34:15;;;;;;;63.70;28.90;;;;;;;4.47;100.00;101048.38;713918;1177;114883;-82
2021/11/23 21:49:18;;;;;;;58.90;26.73;;;;;;;4.80;100.00;101040.64;714127;1197;115220;-81
2021/11/23 22:04:20;;;;;;;70.48;28.78;;;;;;;4.99;100.00;101043.10;714087;1203;115048;-81
2021/11/23 22:19:23;;;;;;;67.97;28.80;;;;;;;5.06;100.00;101041.02;714018;1177;114416;-81
2021/11/23 22:34:25;;;;;;;59.18;25.73;;;;;;;5.24;100.00;101043.55;713798;1177;115800;-81
2021/11/23 22:49:27;;;;;;;49.38;24.05;;;;;;;5.52;100.00;101042.05;713804;1205;115694;-81
2021/11/23 23:04:30;;;;;;;46.60;19.20;;;;;;;5.75;100.00;101026.00;713797;1177;114175;-81
2021/11/23 23:19:32;;;;;;;39.80;19.17;;;;;;;5.85;100.00;101018.53;713996;1174;114277;-82
2021/11/23 23:34:34;;;;;;;42.98;18.78;;;;;;;5.86;100.00;101017.61;713724;1177;114701;-82
2021/11/23 23:49:37;;;;;;;39.03;17.45;;;;;;;5.91;100.00;101019.94;715826;1199;115112;-82
